Airfield :
LOGIN :

Register | Disclaimer

   EN    FR    IT 

 










Legend :    VFR   Marginal VFR   IFR   Intensive IFR   Very Intensive IFR
Visi :
Ceiling :
>= 8 km
>= 3000ft
5 to 8 km
1000 to 3000 ft
1500m to 5 km
500 to 1000 ft
800 to 1500m
200 to 500 ft
< 800m
< 200 ft
Symbols :   Thunderstorms  Fog  Heavy snow  Heavy precipitations  Wind > 20 kt
SIGMETs :     Misc.  Thunderstorms  Icing  Turbulence  Mountain Waves  Volcanic Ashes






- Airport Elevation : 0 ft
- AIRPORT CLOSED.


ESKS - Strängnäs Air Base

CURRENT METAR :
  • 282350Z AUTO 11007KT 9999 NCD 14/10 Q1012

EXPIRED METARs :
  • 282320Z AUTO 12008KT 9999 FEW095/// 14/10 Q1012
  • 282250Z AUTO 12007KT 9999 BKN081/// BKN098/// 15/11 Q1012
  • 282220Z AUTO 14006KT 110V180 9999 SCT084/// OVC098/// 15/11 Q1012
  • 282150Z AUTO 12009KT 9999 FEW098/// 17/11 Q1012
  • 282120Z AUTO 12010KT 9999 FEW069/// 17/11 Q1012
  • 282050Z AUTO 11009KT 9999 FEW076/// 17/11 Q1012
  • 282020Z AUTO 11009KT 080V130 9999 FEW080/// BKN098/// 17/12 Q1012
  • 281950Z AUTO 10008KT 9999 BKN077/// BKN098/// 17/12 Q1012
  • 281920Z AUTO 10007KT 9999 NCD 17/12 Q1012

Expired Forecast.



MET'MAP, your aeronautical weather chart ! - Copyright ORBIFLY December 2007 - Disclaimer

ORBIFLY MET'MAP TEAM :

Programming & Development : Alexandra Zaïnal
Original concept : Baudouin d'Aumeries
Technical & hardware support : Manuel Goepfert
Assistance : Marc-Olivier Méhu




SOURCES & CREDITS :

   NOAA